createdAt,value
2022-11-16T00:09:51.402Z,100.00
2022-11-16T00:20:31.376Z,100.00
2022-11-16T00:23:47.342Z,100.00
2022-11-16T00:26:50.145Z,100.00
2022-11-16T00:30:21.849Z,100.00
2022-11-16T00:33:33.189Z,100.00
2022-11-16T00:36:39.088Z,100.00
2022-11-16T00:43:50.337Z,100.00
2022-11-16T00:47:00.758Z,100.00
2022-11-16T00:51:01.811Z,100.00
2022-11-16T00:58:53.726Z,100.00
2022-11-16T01:01:56.116Z,100.00
2022-11-16T01:05:09.786Z,100.00
2022-11-16T01:08:17.949Z,100.00
2022-11-16T01:11:47.768Z,100.00
2022-11-16T01:15:00.319Z,100.00
2022-11-16T01:22:14.914Z,100.00
2022-11-16T01:25:23.468Z,100.00
2022-11-16T01:28:47.924Z,100.00
2022-11-16T01:32:42.724Z,100.00
2022-11-16T01:48:36.929Z,100.00
2022-11-16T01:51:53.970Z,100.00
2022-11-16T01:55:00.093Z,100.00
2022-11-16T01:58:14.553Z,100.00
2022-11-16T02:01:32.787Z,100.00
2022-11-16T02:09:40.803Z,100.00
2022-11-16T02:13:13.087Z,100.00
2022-11-16T02:17:00.580Z,100.00
2022-11-16T02:20:57.566Z,100.00
2022-11-16T02:24:24.392Z,100.00
2022-11-16T02:28:20.373Z,100.00
2022-11-16T02:36:12.960Z,100.00
2022-11-16T02:39:41.610Z,100.00
2022-11-16T02:43:00.649Z,100.00
2022-11-16T02:46:32.113Z,100.00
2022-11-16T02:49:40.459Z,100.00
2022-11-16T02:52:44.934Z,100.00
2022-11-16T02:55:47.478Z,100.00
2022-11-16T02:58:55.076Z,100.00
2022-11-16T03:02:31.466Z,100.00
2022-11-16T03:05:41.663Z,100.00
2022-11-16T03:08:52.508Z,100.00
2022-11-16T03:12:27.644Z,100.00
2022-11-16T03:19:53.526Z,100.00
2022-11-16T03:23:11.367Z,100.00
2022-11-16T03:26:47.075Z,100.00
2022-11-16T03:30:11.509Z,100.00
2022-11-16T03:33:27.871Z,100.00
2022-11-16T03:36:35.621Z,100.00
2022-11-16T03:39:51.151Z,100.00
2022-11-16T03:43:11.330Z,100.00
2022-11-16T03:46:20.638Z,100.00
2022-11-16T03:49:23.943Z,100.00
2022-11-16T03:52:33.257Z,100.00
2022-11-16T03:55:38.354Z,100.00
2022-11-16T03:58:41.247Z,100.00
2022-11-16T04:01:47.756Z,100.00
2022-11-16T04:05:11.829Z,100.00
2022-11-16T04:08:47.298Z,100.00
2022-11-16T04:19:29.353Z,100.00
2022-11-16T04:23:25.305Z,100.00
2022-11-16T04:26:47.135Z,100.00
2022-11-16T04:29:51.196Z,100.00
2022-11-16T04:33:38.586Z,100.00
2022-11-16T04:37:01.838Z,100.00
2022-11-16T04:40:10.888Z,100.00
2022-11-16T04:43:32.348Z,100.00
2022-11-16T04:51:17.823Z,100.00
2022-11-16T04:54:26.918Z,100.00
2022-11-16T04:57:53.843Z,100.00
2022-11-16T05:01:24.626Z,100.00
2022-11-16T05:04:40.941Z,100.00
2022-11-16T05:07:45.216Z,100.00
2022-11-16T05:11:40.575Z,100.00
2022-11-16T05:18:52.035Z,100.00
2022-11-16T05:22:26.380Z,100.00
2022-11-16T05:25:36.660Z,100.00
2022-11-16T05:28:42.184Z,100.00
2022-11-16T05:31:59.799Z,100.00
2022-11-16T05:38:32.550Z,100.00
2022-11-16T05:41:37.635Z,100.00
2022-11-16T05:44:50.886Z,100.00
2022-11-16T05:47:54.687Z,100.00
2022-11-16T05:51:00.255Z,100.00
2022-11-16T05:54:27.373Z,100.00
2022-11-16T05:57:33.496Z,100.00
2022-11-16T06:00:35.818Z,100.00
2022-11-16T06:03:40.742Z,100.00
2022-11-16T06:06:50.386Z,100.00
2022-11-16T06:10:01.124Z,100.00
2022-11-16T06:13:03.491Z,100.00
2022-11-16T06:16:24.715Z,100.00
2022-11-16T06:19:32.053Z,100.00
2022-11-16T06:22:38.213Z,100.00
2022-11-16T06:25:40.972Z,100.00
2022-11-16T06:28:46.714Z,100.00
2022-11-16T06:32:02.520Z,100.00
2022-11-16T06:35:12.304Z,100.00
2022-11-16T06:38:18.822Z,100.00
2022-11-16T06:41:26.880Z,100.00
2022-11-16T06:48:16.231Z,100.00
2022-11-16T06:51:24.011Z,100.00
2022-11-16T06:54:31.933Z,100.00
2022-11-16T06:57:48.849Z,100.00
2022-11-16T07:01:35.006Z,100.00
2022-11-16T07:04:49.744Z,100.00
2022-11-16T07:08:17.845Z,100.00
2022-11-16T07:11:21.743Z,100.00
2022-11-16T07:14:27.767Z,100.00
2022-11-16T07:17:43.051Z,100.00
2022-11-16T07:28:16.169Z,100.00
2022-11-16T07:31:49.303Z,100.00
2022-11-16T07:35:11.854Z,100.00
2022-11-16T07:42:20.507Z,100.00
2022-11-16T07:45:42.528Z,100.00
2022-11-16T07:48:45.924Z,100.00
2022-11-16T07:52:13.521Z,100.00
2022-11-16T07:55:32.358Z,100.00
2022-11-16T07:58:37.758Z,100.00
2022-11-16T08:01:39.971Z,100.00
2022-11-16T08:04:44.191Z,100.00
2022-11-16T08:07:46.476Z,100.00
2022-11-16T08:10:49.103Z,100.00
2022-11-16T08:13:51.263Z,100.00
2022-11-16T08:16:54.385Z,100.00
2022-11-16T08:19:57.346Z,100.00
2022-11-16T08:23:00.818Z,100.00
2022-11-16T08:26:08.101Z,100.00
2022-11-16T08:29:11.581Z,100.00
2022-11-16T08:32:16.295Z,100.00
2022-11-16T08:35:18.932Z,100.00
2022-11-16T08:38:21.093Z,100.00
2022-11-16T08:41:24.667Z,100.00
2022-11-16T08:44:26.437Z,100.00
2022-11-16T08:47:31.826Z,100.00
2022-11-16T08:50:55.444Z,100.00
2022-11-16T08:53:58.142Z,100.00
2022-11-16T08:57:01.287Z,100.00
2022-11-16T09:00:07.419Z,100.00
2022-11-16T09:03:09.056Z,100.00
2022-11-16T09:06:12.045Z,100.00
2022-11-16T09:09:13.653Z,100.00
2022-11-16T09:12:15.468Z,100.00
2022-11-16T09:15:19.175Z,100.00
2022-11-16T09:18:20.879Z,100.00
2022-11-16T09:21:25.491Z,100.00
2022-11-16T09:24:29.975Z,97.51
2022-11-16T09:27:31.750Z,98.64
2022-11-16T09:30:33.394Z,98.33
2022-11-16T09:33:35.277Z,96.61
2022-11-16T09:36:37.083Z,95.29
2022-11-16T09:39:38.672Z,95.50
2022-11-16T09:43:01.935Z,95.22
2022-11-16T09:46:15.099Z,91.63
2022-11-16T09:49:24.170Z,93.21
2022-11-16T09:52:40.122Z,92.63
2022-11-16T09:55:54.047Z,93.27
2022-11-16T09:59:07.866Z,92.16
2022-11-16T10:02:21.212Z,94.51
2022-11-16T10:05:58.663Z,91.50
2022-11-16T10:09:00.626Z,86.75
2022-11-16T10:12:07.796Z,86.00
2022-11-16T10:15:31.620Z,86.27
2022-11-16T10:18:37.360Z,86.59
2022-11-16T10:21:58.067Z,83.36
2022-11-16T10:25:07.330Z,83.19
2022-11-16T10:28:48.199Z,83.03
2022-11-16T10:32:28.022Z,81.86
2022-11-16T10:35:48.533Z,82.04
2022-11-16T10:38:50.212Z,81.35
2022-11-16T10:41:51.996Z,79.28
2022-11-16T10:45:12.158Z,79.33
2022-11-16T10:48:41.245Z,79.32
2022-11-16T10:51:43.679Z,78.40
2022-11-16T10:58:11.946Z,76.78
2022-11-16T11:01:32.835Z,75.47
2022-11-16T11:04:34.667Z,73.66
2022-11-16T11:07:52.112Z,76.15
2022-11-16T11:11:42.294Z,73.08
2022-11-16T11:15:02.551Z,71.70
2022-11-16T11:18:19.203Z,69.96
2022-11-16T11:21:29.195Z,69.45
2022-11-16T11:24:44.301Z,65.53
2022-11-16T11:27:46.923Z,68.77
2022-11-16T11:30:57.790Z,64.33
2022-11-16T11:34:18.220Z,65.18
2022-11-16T11:37:42.529Z,69.75
2022-11-16T11:41:07.955Z,64.95
2022-11-16T11:44:14.156Z,65.47
2022-11-16T11:48:20.497Z,65.82
2022-11-16T11:52:02.820Z,67.47
2022-11-16T11:55:11.014Z,65.92
2022-11-16T11:58:45.342Z,61.98
2022-11-16T12:01:56.032Z,63.47
2022-11-16T12:05:03.691Z,62.69
2022-11-16T12:08:08.013Z,63.95
2022-11-16T12:11:09.554Z,63.83
2022-11-16T12:14:20.163Z,63.89
2022-11-16T12:17:38.045Z,64.40
2022-11-16T12:20:55.748Z,62.86
2022-11-16T12:24:28.613Z,65.75
2022-11-16T12:27:35.459Z,65.69
2022-11-16T12:31:18.036Z,65.71
2022-11-16T12:34:33.827Z,66.93
2022-11-16T12:37:49.803Z,68.06
2022-11-16T12:41:03.838Z,69.27
2022-11-16T12:44:12.744Z,67.62
2022-11-16T12:47:17.964Z,67.39
2022-11-16T12:50:57.261Z,70.27
2022-11-16T12:54:26.344Z,70.50
2022-11-16T12:58:01.479Z,68.85
2022-11-16T13:01:43.631Z,70.47
2022-11-16T13:04:55.071Z,68.89
2022-11-16T13:08:07.958Z,66.77
2022-11-16T13:11:26.077Z,66.71
2022-11-16T13:17:58.853Z,63.75
2022-11-16T13:21:15.247Z,64.19
2022-11-16T13:24:24.602Z,64.16
2022-11-16T13:27:38.565Z,62.98
2022-11-16T13:31:08.824Z,63.58
2022-11-16T13:34:35.662Z,64.04
2022-11-16T13:37:37.600Z,66.02
2022-11-16T13:40:39.851Z,68.76
2022-11-16T13:43:48.579Z,68.07
2022-11-16T13:47:06.408Z,67.95
2022-11-16T13:50:38.617Z,69.93
2022-11-16T13:54:44.089Z,70.45
2022-11-16T13:57:22.673Z,70.47
2022-11-16T14:00:30.486Z,69.38
2022-11-16T14:03:39.993Z,68.82
2022-11-16T14:10:51.455Z,69.25
2022-11-16T14:15:42.808Z,68.78
2022-11-16T14:22:05.997Z,68.69
2022-11-16T14:29:38.238Z,70.82
2022-11-16T14:32:49.601Z,72.18
2022-11-16T14:39:53.725Z,69.89
2022-11-16T14:43:21.524Z,71.07
2022-11-16T14:46:27.734Z,74.08
2022-11-16T14:49:34.392Z,75.05
2022-11-16T14:52:45.104Z,76.04
2022-11-16T14:56:37.602Z,73.95
2022-11-16T14:59:39.281Z,76.44
2022-11-16T15:02:41.076Z,75.74
2022-11-16T15:05:44.880Z,75.32
2022-11-16T15:08:54.521Z,77.68
2022-11-16T15:12:21.463Z,76.53
2022-11-16T15:15:31.388Z,79.07
2022-11-16T15:18:33.219Z,78.27
2022-11-16T15:21:35.173Z,76.69
2022-11-16T15:24:37.104Z,80.86
2022-11-16T15:27:41.439Z,81.15
2022-11-16T15:30:47.113Z,81.07
2022-11-16T15:33:52.046Z,79.38
2022-11-16T15:36:53.914Z,79.87
2022-11-16T15:39:58.296Z,80.29
2022-11-16T15:43:03.048Z,78.30
2022-11-16T15:46:07.117Z,79.04
2022-11-16T15:49:17.864Z,80.25
2022-11-16T15:52:42.694Z,79.77
2022-11-16T15:55:50.095Z,78.23
2022-11-16T15:58:58.033Z,79.32
2022-11-16T16:02:02.349Z,78.39
2022-11-16T16:05:06.791Z,79.68
2022-11-16T16:08:28.078Z,82.31
2022-11-16T16:11:29.755Z,81.65
2022-11-16T16:14:31.647Z,80.59
2022-11-16T16:17:33.301Z,78.25
2022-11-16T16:20:35.891Z,79.67
2022-11-16T16:23:46.624Z,81.01
2022-11-16T16:26:50.580Z,80.30
2022-11-16T16:30:01.795Z,79.54
2022-11-16T16:33:03.536Z,79.89
2022-11-16T16:36:35.247Z,82.29
2022-11-16T16:39:58.574Z,82.20
2022-11-16T16:43:00.335Z,80.14
2022-11-16T17:11:55.083Z,80.64
2022-11-16T17:47:35.931Z,80.16
2022-11-16T17:51:48.045Z,82.00
2022-11-16T17:54:52.183Z,79.35
2022-11-16T17:58:06.108Z,79.23
2022-11-16T18:13:22.068Z,82.26
